sensor_id;sensor_type;location;lat;lon;timestamp;P1;durP1;ratioP1;P2;durP2;ratioP2
11125;SDS011;5617;54.046;10.676;2022-11-27T00:01:25;54.13;;;18.73;;
11125;SDS011;5617;54.046;10.676;2022-11-27T00:03:33;50.13;;;17.47;;
11125;SDS011;5617;54.046;10.676;2022-11-27T00:05:40;49.80;;;17.17;;
11125;SDS011;5617;54.046;10.676;2022-11-27T00:07:58;47.47;;;16.97;;
11125;SDS011;5617;54.046;10.676;2022-11-27T00:10:05;48.70;;;17.77;;
11125;SDS011;5617;54.046;10.676;2022-11-27T00:12:13;42.17;;;17.00;;
11125;SDS011;5617;54.046;10.676;2022-11-27T00:14:19;47.10;;;16.97;;
11125;SDS011;5617;54.046;10.676;2022-11-27T00:16:27;38.70;;;16.00;;
11125;SDS011;5617;54.046;10.676;2022-11-27T00:18:34;49.03;;;17.70;;
11125;SDS011;5617;54.046;10.676;2022-11-27T00:20:41;49.03;;;17.23;;
11125;SDS011;5617;54.046;10.676;2022-11-27T00:22:50;46.33;;;17.47;;
11125;SDS011;5617;54.046;10.676;2022-11-27T00:24:57;45.83;;;17.87;;
11125;SDS011;5617;54.046;10.676;2022-11-27T00:27:04;43.53;;;17.10;;
11125;SDS011;5617;54.046;10.676;2022-11-27T00:29:12;48.03;;;17.70;;
11125;SDS011;5617;54.046;10.676;2022-11-27T00:31:19;47.20;;;17.57;;
11125;SDS011;5617;54.046;10.676;2022-11-27T00:33:28;44.03;;;16.67;;
11125;SDS011;5617;54.046;10.676;2022-11-27T00:35:37;49.43;;;17.37;;
11125;SDS011;5617;54.046;10.676;2022-11-27T00:37:44;45.47;;;17.10;;
11125;SDS011;5617;54.046;10.676;2022-11-27T00:39:52;44.30;;;16.93;;
11125;SDS011;5617;54.046;10.676;2022-11-27T00:41:59;46.67;;;16.57;;
11125;SDS011;5617;54.046;10.676;2022-11-27T00:44:06;46.23;;;17.17;;
11125;SDS011;5617;54.046;10.676;2022-11-27T00:46:13;42.53;;;17.27;;
11125;SDS011;5617;54.046;10.676;2022-11-27T00:48:21;46.17;;;16.13;;
11125;SDS011;5617;54.046;10.676;2022-11-27T00:50:27;45.27;;;17.17;;
11125;SDS011;5617;54.046;10.676;2022-11-27T00:52:36;43.67;;;18.13;;
11125;SDS011;5617;54.046;10.676;2022-11-27T00:54:43;48.57;;;18.20;;
11125;SDS011;5617;54.046;10.676;2022-11-27T00:56:52;44.13;;;17.73;;
11125;SDS011;5617;54.046;10.676;2022-11-27T00:58:59;41.83;;;17.27;;
11125;SDS011;5617;54.046;10.676;2022-11-27T01:01:07;47.13;;;16.90;;
11125;SDS011;5617;54.046;10.676;2022-11-27T01:03:14;46.27;;;17.87;;
11125;SDS011;5617;54.046;10.676;2022-11-27T01:05:21;43.90;;;16.30;;
11125;SDS011;5617;54.046;10.676;2022-11-27T01:07:28;42.07;;;17.13;;
11125;SDS011;5617;54.046;10.676;2022-11-27T01:09:35;36.50;;;16.80;;
11125;SDS011;5617;54.046;10.676;2022-11-27T01:11:42;39.13;;;16.40;;
11125;SDS011;5617;54.046;10.676;2022-11-27T01:13:50;44.37;;;16.27;;
11125;SDS011;5617;54.046;10.676;2022-11-27T01:15:58;42.30;;;16.73;;
11125;SDS011;5617;54.046;10.676;2022-11-27T01:18:05;45.07;;;17.07;;
11125;SDS011;5617;54.046;10.676;2022-11-27T01:20:12;39.63;;;16.30;;
11125;SDS011;5617;54.046;10.676;2022-11-27T01:22:19;44.40;;;17.33;;
11125;SDS011;5617;54.046;10.676;2022-11-27T01:24:25;33.77;;;15.37;;
11125;SDS011;5617;54.046;10.676;2022-11-27T01:26:32;43.30;;;16.50;;
11125;SDS011;5617;54.046;10.676;2022-11-27T01:28:39;39.13;;;15.93;;
11125;SDS011;5617;54.046;10.676;2022-11-27T01:30:48;42.07;;;15.70;;
11125;SDS011;5617;54.046;10.676;2022-11-27T01:32:56;40.17;;;16.30;;
11125;SDS011;5617;54.046;10.676;2022-11-27T01:35:03;41.87;;;15.67;;
11125;SDS011;5617;54.046;10.676;2022-11-27T01:37:11;40.83;;;15.60;;
11125;SDS011;5617;54.046;10.676;2022-11-27T01:39:19;39.67;;;15.23;;
11125;SDS011;5617;54.046;10.676;2022-11-27T01:41:29;37.63;;;15.20;;
11125;SDS011;5617;54.046;10.676;2022-11-27T01:43:38;34.40;;;14.57;;
11125;SDS011;5617;54.046;10.676;2022-11-27T01:45:49;39.30;;;15.17;;
11125;SDS011;5617;54.046;10.676;2022-11-27T01:47:57;38.07;;;15.30;;
11125;SDS011;5617;54.046;10.676;2022-11-27T01:50:08;36.57;;;14.57;;
11125;SDS011;5617;54.046;10.676;2022-11-27T01:52:20;37.13;;;14.63;;
11125;SDS011;5617;54.046;10.676;2022-11-27T01:54:31;37.87;;;14.30;;
11125;SDS011;5617;54.046;10.676;2022-11-27T01:56:43;31.90;;;13.70;;
11125;SDS011;5617;54.046;10.676;2022-11-27T01:58:53;39.47;;;14.73;;
11125;SDS011;5617;54.046;10.676;2022-11-27T02:01:03;34.20;;;14.73;;
11125;SDS011;5617;54.046;10.676;2022-11-27T02:03:10;36.13;;;15.20;;
11125;SDS011;5617;54.046;10.676;2022-11-27T02:05:20;31.13;;;15.10;;
11125;SDS011;5617;54.046;10.676;2022-11-27T02:07:29;32.77;;;14.13;;
11125;SDS011;5617;54.046;10.676;2022-11-27T02:09:35;33.43;;;14.03;;
11125;SDS011;5617;54.046;10.676;2022-11-27T02:11:45;35.77;;;14.27;;
11125;SDS011;5617;54.046;10.676;2022-11-27T02:14:00;33.77;;;14.37;;
11125;SDS011;5617;54.046;10.676;2022-11-27T02:16:14;30.67;;;13.63;;
11125;SDS011;5617;54.046;10.676;2022-11-27T02:18:27;28.27;;;13.43;;
11125;SDS011;5617;54.046;10.676;2022-11-27T02:20:44;33.20;;;15.10;;
11125;SDS011;5617;54.046;10.676;2022-11-27T02:22:59;29.97;;;14.23;;
11125;SDS011;5617;54.046;10.676;2022-11-27T02:25:32;31.57;;;13.93;;
11125;SDS011;5617;54.046;10.676;2022-11-27T02:27:52;28.47;;;13.17;;
11125;SDS011;5617;54.046;10.676;2022-11-27T02:30:10;30.57;;;13.43;;
11125;SDS011;5617;54.046;10.676;2022-11-27T02:32:19;32.73;;;13.63;;
11125;SDS011;5617;54.046;10.676;2022-11-27T02:34:32;34.53;;;12.70;;
11125;SDS011;5617;54.046;10.676;2022-11-27T02:36:43;29.13;;;13.53;;
11125;SDS011;5617;54.046;10.676;2022-11-27T02:38:57;36.43;;;13.87;;
11125;SDS011;5617;54.046;10.676;2022-11-27T02:41:27;37.17;;;13.90;;
11125;SDS011;5617;54.046;10.676;2022-11-27T02:43:36;31.03;;;13.67;;
11125;SDS011;5617;54.046;10.676;2022-11-27T02:45:47;27.93;;;12.57;;
11125;SDS011;5617;54.046;10.676;2022-11-27T02:47:57;24.03;;;11.73;;
11125;SDS011;5617;54.046;10.676;2022-11-27T02:50:06;27.40;;;13.10;;
11125;SDS011;5617;54.046;10.676;2022-11-27T02:52:18;27.37;;;12.90;;
11125;SDS011;5617;54.046;10.676;2022-11-27T02:54:26;32.87;;;14.07;;
11125;SDS011;5617;54.046;10.676;2022-11-27T02:56:35;28.73;;;13.10;;
11125;SDS011;5617;54.046;10.676;2022-11-27T02:58:44;27.37;;;12.63;;
11125;SDS011;5617;54.046;10.676;2022-11-27T03:00:53;29.23;;;12.33;;
11125;SDS011;5617;54.046;10.676;2022-11-27T03:03:02;31.47;;;13.43;;
11125;SDS011;5617;54.046;10.676;2022-11-27T03:05:14;27.97;;;12.60;;
11125;SDS011;5617;54.046;10.676;2022-11-27T03:07:26;27.97;;;12.50;;
11125;SDS011;5617;54.046;10.676;2022-11-27T03:09:42;28.67;;;12.67;;
11125;SDS011;5617;54.046;10.676;2022-11-27T03:11:51;34.43;;;12.60;;
11125;SDS011;5617;54.046;10.676;2022-11-27T03:14:00;27.13;;;12.60;;
11125;SDS011;5617;54.046;10.676;2022-11-27T03:16:13;31.33;;;12.87;;
11125;SDS011;5617;54.046;10.676;2022-11-27T03:18:27;30.67;;;12.63;;
11125;SDS011;5617;54.046;10.676;2022-11-27T03:20:41;26.00;;;11.90;;
11125;SDS011;5617;54.046;10.676;2022-11-27T03:22:54;31.17;;;13.20;;
11125;SDS011;5617;54.046;10.676;2022-11-27T03:25:02;27.83;;;12.37;;
11125;SDS011;5617;54.046;10.676;2022-11-27T03:27:09;27.60;;;12.63;;
11125;SDS011;5617;54.046;10.676;2022-11-27T03:29:20;25.50;;;11.73;;
11125;SDS011;5617;54.046;10.676;2022-11-27T03:31:32;29.57;;;13.40;;
11125;SDS011;5617;54.046;10.676;2022-11-27T03:33:39;25.27;;;11.73;;
11125;SDS011;5617;54.046;10.676;2022-11-27T03:35:45;26.63;;;13.47;;
11125;SDS011;5617;54.046;10.676;2022-11-27T03:37:52;25.00;;;12.80;;
11125;SDS011;5617;54.046;10.676;2022-11-27T03:40:00;28.60;;;12.73;;
11125;SDS011;5617;54.046;10.676;2022-11-27T03:42:10;24.57;;;11.87;;
11125;SDS011;5617;54.046;10.676;2022-11-27T03:44:25;32.47;;;13.03;;
11125;SDS011;5617;54.046;10.676;2022-11-27T03:46:41;31.13;;;12.80;;
11125;SDS011;5617;54.046;10.676;2022-11-27T03:48:57;26.33;;;12.97;;
11125;SDS011;5617;54.046;10.676;2022-11-27T03:51:10;28.50;;;13.47;;
11125;SDS011;5617;54.046;10.676;2022-11-27T03:53:23;31.80;;;13.07;;
11125;SDS011;5617;54.046;10.676;2022-11-27T03:55:39;28.20;;;13.60;;
11125;SDS011;5617;54.046;10.676;2022-11-27T03:57:53;32.13;;;13.10;;
11125;SDS011;5617;54.046;10.676;2022-11-27T04:00:05;32.63;;;13.47;;
11125;SDS011;5617;54.046;10.676;2022-11-27T04:02:24;26.87;;;12.90;;
11125;SDS011;5617;54.046;10.676;2022-11-27T04:04:35;28.30;;;13.40;;
11125;SDS011;5617;54.046;10.676;2022-11-27T04:06:42;25.10;;;13.00;;
11125;SDS011;5617;54.046;10.676;2022-11-27T04:08:50;27.40;;;12.27;;
11125;SDS011;5617;54.046;10.676;2022-11-27T04:10:57;30.30;;;12.37;;
11125;SDS011;5617;54.046;10.676;2022-11-27T04:13:04;28.57;;;11.70;;
11125;SDS011;5617;54.046;10.676;2022-11-27T04:15:11;31.03;;;13.17;;
11125;SDS011;5617;54.046;10.676;2022-11-27T04:17:20;23.27;;;12.73;;
11125;SDS011;5617;54.046;10.676;2022-11-27T04:19:26;27.63;;;12.53;;
11125;SDS011;5617;54.046;10.676;2022-11-27T04:21:33;29.53;;;13.00;;
11125;SDS011;5617;54.046;10.676;2022-11-27T04:23:40;29.17;;;13.03;;
11125;SDS011;5617;54.046;10.676;2022-11-27T04:25:48;25.60;;;12.07;;
11125;SDS011;5617;54.046;10.676;2022-11-27T04:27:55;28.27;;;12.20;;
11125;SDS011;5617;54.046;10.676;2022-11-27T04:30:02;25.70;;;11.73;;
11125;SDS011;5617;54.046;10.676;2022-11-27T04:32:09;25.30;;;12.00;;
11125;SDS011;5617;54.046;10.676;2022-11-27T04:34:18;23.73;;;11.27;;
11125;SDS011;5617;54.046;10.676;2022-11-27T04:36:25;26.20;;;11.33;;
11125;SDS011;5617;54.046;10.676;2022-11-27T04:38:31;28.50;;;11.47;;
11125;SDS011;5617;54.046;10.676;2022-11-27T04:40:38;20.63;;;11.07;;
11125;SDS011;5617;54.046;10.676;2022-11-27T04:42:45;24.80;;;12.00;;
11125;SDS011;5617;54.046;10.676;2022-11-27T04:44:52;29.67;;;12.00;;
11125;SDS011;5617;54.046;10.676;2022-11-27T04:46:59;23.63;;;10.53;;
11125;SDS011;5617;54.046;10.676;2022-11-27T04:49:07;23.03;;;11.10;;
11125;SDS011;5617;54.046;10.676;2022-11-27T04:51:16;22.97;;;10.47;;
11125;SDS011;5617;54.046;10.676;2022-11-27T04:53:23;23.07;;;11.27;;
11125;SDS011;5617;54.046;10.676;2022-11-27T04:55:30;25.70;;;10.77;;
11125;SDS011;5617;54.046;10.676;2022-11-27T04:57:37;25.67;;;10.90;;
11125;SDS011;5617;54.046;10.676;2022-11-27T04:59:43;21.10;;;10.63;;
11125;SDS011;5617;54.046;10.676;2022-11-27T05:01:50;25.50;;;11.20;;
11125;SDS011;5617;54.046;10.676;2022-11-27T05:03:57;24.30;;;10.57;;
11125;SDS011;5617;54.046;10.676;2022-11-27T05:06:04;25.33;;;11.53;;
11125;SDS011;5617;54.046;10.676;2022-11-27T05:08:13;22.07;;;10.43;;
11125;SDS011;5617;54.046;10.676;2022-11-27T05:10:19;22.10;;;10.63;;
11125;SDS011;5617;54.046;10.676;2022-11-27T05:12:27;28.47;;;10.53;;
11125;SDS011;5617;54.046;10.676;2022-11-27T05:14:34;19.50;;;10.33;;
11125;SDS011;5617;54.046;10.676;2022-11-27T05:16:41;21.50;;;10.10;;
11125;SDS011;5617;54.046;10.676;2022-11-27T05:18:49;22.73;;;10.73;;
11125;SDS011;5617;54.046;10.676;2022-11-27T05:20:57;25.47;;;10.57;;
11125;SDS011;5617;54.046;10.676;2022-11-27T05:23:05;22.17;;;10.03;;
11125;SDS011;5617;54.046;10.676;2022-11-27T05:25:13;20.80;;;9.57;;
11125;SDS011;5617;54.046;10.676;2022-11-27T05:27:20;23.43;;;10.70;;
11125;SDS011;5617;54.046;10.676;2022-11-27T05:29:27;18.67;;;10.23;;
11125;SDS011;5617;54.046;10.676;2022-11-27T05:31:34;21.90;;;10.77;;
11125;SDS011;5617;54.046;10.676;2022-11-27T05:33:41;17.57;;;10.07;;
11125;SDS011;5617;54.046;10.676;2022-11-27T05:35:48;24.40;;;10.43;;
11125;SDS011;5617;54.046;10.676;2022-11-27T05:37:55;22.33;;;10.57;;
11125;SDS011;5617;54.046;10.676;2022-11-27T05:40:02;27.77;;;10.47;;
11125;SDS011;5617;54.046;10.676;2022-11-27T05:42:11;19.97;;;10.17;;
11125;SDS011;5617;54.046;10.676;2022-11-27T05:44:17;19.57;;;9.40;;
11125;SDS011;5617;54.046;10.676;2022-11-27T05:46:24;18.97;;;9.73;;
11125;SDS011;5617;54.046;10.676;2022-11-27T05:48:31;18.30;;;9.77;;
11125;SDS011;5617;54.046;10.676;2022-11-27T05:50:38;21.47;;;10.43;;
11125;SDS011;5617;54.046;10.676;2022-11-27T05:52:45;19.17;;;9.00;;
11125;SDS011;5617;54.046;10.676;2022-11-27T05:54:52;22.77;;;9.90;;
11125;SDS011;5617;54.046;10.676;2022-11-27T05:57:00;21.93;;;9.53;;
11125;SDS011;5617;54.046;10.676;2022-11-27T05:59:09;20.60;;;10.00;;
11125;SDS011;5617;54.046;10.676;2022-11-27T06:01:16;14.17;;;9.27;;
11125;SDS011;5617;54.046;10.676;2022-11-27T06:03:24;22.10;;;9.63;;
11125;SDS011;5617;54.046;10.676;2022-11-27T06:05:31;19.03;;;9.87;;
11125;SDS011;5617;54.046;10.676;2022-11-27T06:07:38;23.20;;;10.27;;
11125;SDS011;5617;54.046;10.676;2022-11-27T06:09:45;18.77;;;10.10;;
11125;SDS011;5617;54.046;10.676;2022-11-27T06:11:52;19.83;;;10.30;;
11125;SDS011;5617;54.046;10.676;2022-11-27T06:13:59;21.13;;;10.20;;
11125;SDS011;5617;54.046;10.676;2022-11-27T06:16:08;19.03;;;10.83;;
11125;SDS011;5617;54.046;10.676;2022-11-27T06:18:17;18.60;;;9.27;;
11125;SDS011;5617;54.046;10.676;2022-11-27T06:20:23;19.43;;;9.60;;
11125;SDS011;5617;54.046;10.676;2022-11-27T06:22:31;20.73;;;9.10;;
11125;SDS011;5617;54.046;10.676;2022-11-27T06:24:38;18.30;;;9.63;;
11125;SDS011;5617;54.046;10.676;2022-11-27T06:26:45;18.93;;;10.03;;
11125;SDS011;5617;54.046;10.676;2022-11-27T06:28:52;18.87;;;10.37;;
11125;SDS011;5617;54.046;10.676;2022-11-27T06:31:03;19.63;;;11.40;;
11125;SDS011;5617;54.046;10.676;2022-11-27T06:33:12;15.90;;;10.00;;
11125;SDS011;5617;54.046;10.676;2022-11-27T06:35:20;17.33;;;9.30;;
11125;SDS011;5617;54.046;10.676;2022-11-27T06:37:27;19.23;;;9.90;;
11125;SDS011;5617;54.046;10.676;2022-11-27T06:39:34;17.97;;;10.00;;
11125;SDS011;5617;54.046;10.676;2022-11-27T06:41:41;23.17;;;10.40;;
11125;SDS011;5617;54.046;10.676;2022-11-27T06:43:48;17.17;;;9.50;;
11125;SDS011;5617;54.046;10.676;2022-11-27T06:45:55;17.67;;;9.43;;
11125;SDS011;5617;54.046;10.676;2022-11-27T06:48:02;15.00;;;9.10;;
11125;SDS011;5617;54.046;10.676;2022-11-27T06:50:11;17.30;;;9.60;;
11125;SDS011;5617;54.046;10.676;2022-11-27T06:52:18;16.70;;;9.23;;
11125;SDS011;5617;54.046;10.676;2022-11-27T06:54:25;18.87;;;10.10;;
11125;SDS011;5617;54.046;10.676;2022-11-27T06:56:32;17.30;;;10.07;;
11125;SDS011;5617;54.046;10.676;2022-11-27T06:58:39;18.00;;;9.83;;
11125;SDS011;5617;54.046;10.676;2022-11-27T07:00:46;15.83;;;10.00;;
11125;SDS011;5617;54.046;10.676;2022-11-27T07:02:53;17.33;;;10.10;;
11125;SDS011;5617;54.046;10.676;2022-11-27T07:05:01;19.07;;;10.00;;
11125;SDS011;5617;54.046;10.676;2022-11-27T07:07:10;19.63;;;11.13;;
11125;SDS011;5617;54.046;10.676;2022-11-27T07:09:17;20.00;;;10.90;;
11125;SDS011;5617;54.046;10.676;2022-11-27T07:11:25;18.23;;;10.73;;
11125;SDS011;5617;54.046;10.676;2022-11-27T07:13:34;20.73;;;11.17;;
11125;SDS011;5617;54.046;10.676;2022-11-27T07:15:41;17.87;;;10.80;;
11125;SDS011;5617;54.046;10.676;2022-11-27T07:17:48;20.20;;;11.37;;
11125;SDS011;5617;54.046;10.676;2022-11-27T07:19:55;17.70;;;10.73;;
11125;SDS011;5617;54.046;10.676;2022-11-27T07:22:02;20.17;;;11.33;;
11125;SDS011;5617;54.046;10.676;2022-11-27T07:24:10;20.70;;;11.30;;
11125;SDS011;5617;54.046;10.676;2022-11-27T07:26:18;19.43;;;10.37;;
11125;SDS011;5617;54.046;10.676;2022-11-27T07:28:26;17.97;;;10.90;;
11125;SDS011;5617;54.046;10.676;2022-11-27T07:30:33;19.83;;;11.43;;
11125;SDS011;5617;54.046;10.676;2022-11-27T07:32:40;20.53;;;11.23;;
11125;SDS011;5617;54.046;10.676;2022-11-27T07:34:47;19.87;;;11.03;;
11125;SDS011;5617;54.046;10.676;2022-11-27T07:36:54;18.23;;;11.13;;
11125;SDS011;5617;54.046;10.676;2022-11-27T07:39:01;19.73;;;11.63;;
11125;SDS011;5617;54.046;10.676;2022-11-27T07:41:09;18.33;;;11.20;;
11125;SDS011;5617;54.046;10.676;2022-11-27T07:43:16;18.27;;;11.23;;
11125;SDS011;5617;54.046;10.676;2022-11-27T07:45:23;20.13;;;11.47;;
11125;SDS011;5617;54.046;10.676;2022-11-27T07:47:30;21.73;;;11.73;;
11125;SDS011;5617;54.046;10.676;2022-11-27T07:49:37;20.17;;;12.27;;
11125;SDS011;5617;54.046;10.676;2022-11-27T07:51:45;20.27;;;11.80;;
11125;SDS011;5617;54.046;10.676;2022-11-27T07:53:52;20.33;;;11.87;;
11125;SDS011;5617;54.046;10.676;2022-11-27T07:55:59;21.80;;;11.87;;
11125;SDS011;5617;54.046;10.676;2022-11-27T07:58:07;20.70;;;11.47;;
11125;SDS011;5617;54.046;10.676;2022-11-27T08:00:16;20.07;;;12.77;;
11125;SDS011;5617;54.046;10.676;2022-11-27T08:02:24;23.07;;;12.57;;
11125;SDS011;5617;54.046;10.676;2022-11-27T08:04:31;19.60;;;11.43;;
11125;SDS011;5617;54.046;10.676;2022-11-27T08:06:38;18.80;;;11.33;;
11125;SDS011;5617;54.046;10.676;2022-11-27T08:08:46;21.33;;;11.30;;
11125;SDS011;5617;54.046;10.676;2022-11-27T08:10:53;18.63;;;12.07;;
11125;SDS011;5617;54.046;10.676;2022-11-27T08:13:00;20.50;;;11.57;;
11125;SDS011;5617;54.046;10.676;2022-11-27T08:15:09;19.53;;;11.93;;
11125;SDS011;5617;54.046;10.676;2022-11-27T08:17:18;21.73;;;11.63;;
11125;SDS011;5617;54.046;10.676;2022-11-27T08:19:25;18.50;;;11.30;;
11125;SDS011;5617;54.046;10.676;2022-11-27T08:21:31;20.43;;;11.20;;
11125;SDS011;5617;54.046;10.676;2022-11-27T08:23:39;16.73;;;10.30;;
11125;SDS011;5617;54.046;10.676;2022-11-27T08:25:46;21.20;;;11.27;;
11125;SDS011;5617;54.046;10.676;2022-11-27T08:27:53;18.27;;;11.47;;
11125;SDS011;5617;54.046;10.676;2022-11-27T08:30:00;19.97;;;12.07;;
11125;SDS011;5617;54.046;10.676;2022-11-27T08:32:09;20.57;;;11.33;;
11125;SDS011;5617;54.046;10.676;2022-11-27T08:34:16;21.03;;;11.37;;
11125;SDS011;5617;54.046;10.676;2022-11-27T08:36:23;21.47;;;11.30;;
11125;SDS011;5617;54.046;10.676;2022-11-27T08:38:31;21.00;;;11.77;;
11125;SDS011;5617;54.046;10.676;2022-11-27T08:40:38;19.67;;;11.13;;
11125;SDS011;5617;54.046;10.676;2022-11-27T08:42:46;19.00;;;11.30;;
11125;SDS011;5617;54.046;10.676;2022-11-27T08:44:53;22.03;;;12.47;;
11125;SDS011;5617;54.046;10.676;2022-11-27T08:47:00;18.43;;;11.67;;
11125;SDS011;5617;54.046;10.676;2022-11-27T08:49:08;19.13;;;11.57;;
11125;SDS011;5617;54.046;10.676;2022-11-27T08:51:15;18.67;;;10.60;;
11125;SDS011;5617;54.046;10.676;2022-11-27T08:53:22;17.37;;;11.37;;
11125;SDS011;5617;54.046;10.676;2022-11-27T08:55:29;20.27;;;11.20;;
11125;SDS011;5617;54.046;10.676;2022-11-27T08:57:36;19.00;;;11.73;;
11125;SDS011;5617;54.046;10.676;2022-11-27T08:59:43;20.20;;;11.47;;
11125;SDS011;5617;54.046;10.676;2022-11-27T09:01:50;18.27;;;10.03;;
11125;SDS011;5617;54.046;10.676;2022-11-27T09:03:57;18.63;;;10.60;;
11125;SDS011;5617;54.046;10.676;2022-11-27T09:06:07;19.07;;;11.60;;
11125;SDS011;5617;54.046;10.676;2022-11-27T09:08:15;21.10;;;11.47;;
11125;SDS011;5617;54.046;10.676;2022-11-27T09:10:24;18.33;;;10.80;;
11125;SDS011;5617;54.046;10.676;2022-11-27T09:12:31;18.30;;;11.43;;
11125;SDS011;5617;54.046;10.676;2022-11-27T09:14:39;19.20;;;10.90;;
11125;SDS011;5617;54.046;10.676;2022-11-27T09:16:46;16.63;;;10.90;;
11125;SDS011;5617;54.046;10.676;2022-11-27T09:18:53;16.67;;;11.00;;
11125;SDS011;5617;54.046;10.676;2022-11-27T09:21:00;15.80;;;10.63;;
11125;SDS011;5617;54.046;10.676;2022-11-27T09:23:10;17.23;;;10.30;;
11125;SDS011;5617;54.046;10.676;2022-11-27T09:25:17;19.70;;;11.13;;
11125;SDS011;5617;54.046;10.676;2022-11-27T09:27:24;15.37;;;10.00;;
11125;SDS011;5617;54.046;10.676;2022-11-27T09:29:32;13.63;;;9.23;;
11125;SDS011;5617;54.046;10.676;2022-11-27T09:31:39;14.47;;;9.43;;
11125;SDS011;5617;54.046;10.676;2022-11-27T09:33:46;14.63;;;9.73;;
11125;SDS011;5617;54.046;10.676;2022-11-27T09:35:54;13.37;;;9.87;;
11125;SDS011;5617;54.046;10.676;2022-11-27T09:38:01;13.80;;;9.87;;
11125;SDS011;5617;54.046;10.676;2022-11-27T09:40:12;13.30;;;9.03;;
11125;SDS011;5617;54.046;10.676;2022-11-27T09:42:25;17.13;;;10.23;;
11125;SDS011;5617;54.046;10.676;2022-11-27T09:44:41;17.87;;;10.80;;
11125;SDS011;5617;54.046;10.676;2022-11-27T09:46:52;14.10;;;9.13;;
11125;SDS011;5617;54.046;10.676;2022-11-27T09:49:02;15.03;;;9.20;;
11125;SDS011;5617;54.046;10.676;2022-11-27T09:51:13;12.63;;;8.80;;
11125;SDS011;5617;54.046;10.676;2022-11-27T09:53:27;12.30;;;8.80;;
11125;SDS011;5617;54.046;10.676;2022-11-27T09:55:38;11.60;;;8.33;;
11125;SDS011;5617;54.046;10.676;2022-11-27T09:57:49;11.73;;;8.17;;
11125;SDS011;5617;54.046;10.676;2022-11-27T10:00:04;12.17;;;8.47;;
11125;SDS011;5617;54.046;10.676;2022-11-27T10:02:20;12.33;;;8.07;;
11125;SDS011;5617;54.046;10.676;2022-11-27T10:04:31;11.50;;;8.90;;
11125;SDS011;5617;54.046;10.676;2022-11-27T10:06:40;10.80;;;7.97;;
11125;SDS011;5617;54.046;10.676;2022-11-27T10:09:04;13.17;;;8.33;;
11125;SDS011;5617;54.046;10.676;2022-11-27T10:11:20;14.13;;;8.93;;
11125;SDS011;5617;54.046;10.676;2022-11-27T10:13:38;12.20;;;8.33;;
11125;SDS011;5617;54.046;10.676;2022-11-27T10:15:57;13.07;;;8.73;;
11125;SDS011;5617;54.046;10.676;2022-11-27T10:18:10;11.97;;;9.57;;
11125;SDS011;5617;54.046;10.676;2022-11-27T10:20:22;14.47;;;9.03;;
11125;SDS011;5617;54.046;10.676;2022-11-27T10:22:38;12.43;;;9.20;;
11125;SDS011;5617;54.046;10.676;2022-11-27T10:24:55;11.33;;;8.17;;
11125;SDS011;5617;54.046;10.676;2022-11-27T10:27:11;11.10;;;8.03;;
11125;SDS011;5617;54.046;10.676;2022-11-27T10:29:26;13.43;;;8.33;;
11125;SDS011;5617;54.046;10.676;2022-11-27T10:31:42;10.67;;;7.47;;
11125;SDS011;5617;54.046;10.676;2022-11-27T10:33:54;11.13;;;8.07;;
11125;SDS011;5617;54.046;10.676;2022-11-27T10:36:07;10.13;;;7.53;;
11125;SDS011;5617;54.046;10.676;2022-11-27T10:38:19;9.10;;;7.63;;
11125;SDS011;5617;54.046;10.676;2022-11-27T10:40:31;11.70;;;7.40;;
11125;SDS011;5617;54.046;10.676;2022-11-27T10:42:46;9.47;;;7.47;;
11125;SDS011;5617;54.046;10.676;2022-11-27T10:44:58;10.80;;;7.50;;
11125;SDS011;5617;54.046;10.676;2022-11-27T10:47:09;11.23;;;7.37;;
11125;SDS011;5617;54.046;10.676;2022-11-27T10:49:18;11.10;;;7.10;;
11125;SDS011;5617;54.046;10.676;2022-11-27T10:51:28;10.57;;;7.23;;
11125;SDS011;5617;54.046;10.676;2022-11-27T10:53:39;8.77;;;7.07;;
11125;SDS011;5617;54.046;10.676;2022-11-27T10:56:00;10.37;;;6.83;;
11125;SDS011;5617;54.046;10.676;2022-11-27T10:58:22;12.37;;;7.87;;
11125;SDS011;5617;54.046;10.676;2022-11-27T11:00:33;10.50;;;7.77;;
11125;SDS011;5617;54.046;10.676;2022-11-27T11:02:40;11.60;;;7.17;;
11125;SDS011;5617;54.046;10.676;2022-11-27T11:04:48;12.40;;;7.60;;
11125;SDS011;5617;54.046;10.676;2022-11-27T11:06:55;7.57;;;6.73;;
11125;SDS011;5617;54.046;10.676;2022-11-27T11:09:03;10.30;;;6.93;;
11125;SDS011;5617;54.046;10.676;2022-11-27T11:11:23;13.57;;;8.27;;
11125;SDS011;5617;54.046;10.676;2022-11-27T11:13:40;11.97;;;8.37;;
11125;SDS011;5617;54.046;10.676;2022-11-27T11:15:51;8.63;;;6.90;;
11125;SDS011;5617;54.046;10.676;2022-11-27T11:18:00;7.93;;;5.97;;
11125;SDS011;5617;54.046;10.676;2022-11-27T11:20:14;9.57;;;6.27;;
11125;SDS011;5617;54.046;10.676;2022-11-27T11:22:24;8.63;;;6.00;;
11125;SDS011;5617;54.046;10.676;2022-11-27T11:24:34;9.77;;;5.90;;
11125;SDS011;5617;54.046;10.676;2022-11-27T11:26:47;8.80;;;6.33;;
11125;SDS011;5617;54.046;10.676;2022-11-27T11:28:57;7.90;;;5.97;;
11125;SDS011;5617;54.046;10.676;2022-11-27T11:31:06;6.97;;;5.97;;
11125;SDS011;5617;54.046;10.676;2022-11-27T11:33:17;8.73;;;6.60;;
11125;SDS011;5617;54.046;10.676;2022-11-27T11:35:25;7.83;;;6.10;;
11125;SDS011;5617;54.046;10.676;2022-11-27T11:37:34;7.30;;;6.00;;
11125;SDS011;5617;54.046;10.676;2022-11-27T11:39:44;7.73;;;5.63;;
11125;SDS011;5617;54.046;10.676;2022-11-27T11:41:57;8.23;;;5.90;;
11125;SDS011;5617;54.046;10.676;2022-11-27T11:44:15;7.87;;;6.67;;
11125;SDS011;5617;54.046;10.676;2022-11-27T11:46:28;6.90;;;5.70;;
11125;SDS011;5617;54.046;10.676;2022-11-27T11:48:37;7.70;;;6.23;;
11125;SDS011;5617;54.046;10.676;2022-11-27T11:50:45;9.70;;;6.80;;
11125;SDS011;5617;54.046;10.676;2022-11-27T11:52:58;8.27;;;6.70;;
11125;SDS011;5617;54.046;10.676;2022-11-27T11:55:13;6.73;;;6.03;;
11125;SDS011;5617;54.046;10.676;2022-11-27T12:00:17;8.60;;;7.03;;
11125;SDS011;5617;54.046;10.676;2022-11-27T12:02:32;10.63;;;6.97;;
11125;SDS011;5617;54.046;10.676;2022-11-27T12:04:58;7.57;;;5.60;;
11125;SDS011;5617;54.046;10.676;2022-11-27T12:07:18;9.13;;;6.90;;
11125;SDS011;5617;54.046;10.676;2022-11-27T12:09:42;9.17;;;6.47;;
11125;SDS011;5617;54.046;10.676;2022-11-27T12:11:56;7.80;;;5.70;;
11125;SDS011;5617;54.046;10.676;2022-11-27T12:14:10;7.50;;;5.97;;
11125;SDS011;5617;54.046;10.676;2022-11-27T12:16:31;7.57;;;5.70;;
11125;SDS011;5617;54.046;10.676;2022-11-27T12:18:49;7.13;;;5.93;;
11125;SDS011;5617;54.046;10.676;2022-11-27T12:21:12;8.07;;;6.27;;
11125;SDS011;5617;54.046;10.676;2022-11-27T12:23:27;10.97;;;5.87;;
11125;SDS011;5617;54.046;10.676;2022-11-27T12:25:56;9.03;;;5.90;;
11125;SDS011;5617;54.046;10.676;2022-11-27T12:28:16;9.47;;;6.07;;
11125;SDS011;5617;54.046;10.676;2022-11-27T12:30:38;9.77;;;6.27;;
11125;SDS011;5617;54.046;10.676;2022-11-27T12:32:57;7.00;;;5.73;;
11125;SDS011;5617;54.046;10.676;2022-11-27T12:35:19;8.17;;;7.23;;
11125;SDS011;5617;54.046;10.676;2022-11-27T12:37:38;7.97;;;5.63;;
11125;SDS011;5617;54.046;10.676;2022-11-27T12:40:00;8.50;;;5.70;;
11125;SDS011;5617;54.046;10.676;2022-11-27T12:42:14;7.67;;;5.87;;
11125;SDS011;5617;54.046;10.676;2022-11-27T12:44:29;8.70;;;6.40;;
11125;SDS011;5617;54.046;10.676;2022-11-27T12:46:56;8.13;;;6.23;;